sensor_id;sensor_type;location;lat;lon;timestamp;P1;durP1;ratioP1;P2;durP2;ratioP2
2756;SDS011;1386;50.862;6.494;2022-08-03T05:18:15;5.87;;;4.40;;
2756;SDS011;1386;50.862;6.494;2022-08-03T05:20:42;5.53;;;4.00;;
2756;SDS011;1386;50.862;6.494;2022-08-03T05:23:09;8.90;;;4.03;;
2756;SDS011;1386;50.862;6.494;2022-08-03T05:25:36;4.53;;;3.73;;
2756;SDS011;1386;50.862;6.494;2022-08-03T05:28:03;5.60;;;3.73;;
2756;SDS011;1386;50.862;6.494;2022-08-03T05:30:30;5.17;;;3.77;;
2756;SDS011;1386;50.862;6.494;2022-08-03T05:32:57;7.03;;;4.00;;
2756;SDS011;1386;50.862;6.494;2022-08-03T05:35:26;7.70;;;4.20;;
2756;SDS011;1386;50.862;6.494;2022-08-03T05:37:53;6.10;;;3.90;;
2756;SDS011;1386;50.862;6.494;2022-08-03T05:40:20;7.47;;;3.73;;
2756;SDS011;1386;50.862;6.494;2022-08-03T05:42:47;5.10;;;3.70;;
2756;SDS011;1386;50.862;6.494;2022-08-03T05:45:14;5.13;;;4.20;;
2756;SDS011;1386;50.862;6.494;2022-08-03T05:47:42;5.90;;;3.50;;
2756;SDS011;1386;50.862;6.494;2022-08-03T05:50:09;7.90;;;4.30;;
2756;SDS011;1386;50.862;6.494;2022-08-03T05:52:38;5.13;;;3.30;;
2756;SDS011;1386;50.862;6.494;2022-08-03T05:55:07;5.93;;;3.20;;
2756;SDS011;1386;50.862;6.494;2022-08-03T05:57:34;5.83;;;3.57;;
2756;SDS011;1386;50.862;6.494;2022-08-03T06:00:03;4.60;;;3.43;;
2756;SDS011;1386;50.862;6.494;2022-08-03T06:02:31;4.60;;;3.80;;
2756;SDS011;1386;50.862;6.494;2022-08-03T06:04:58;9.33;;;3.40;;
2756;SDS011;1386;50.862;6.494;2022-08-03T06:07:25;5.17;;;2.93;;
2756;SDS011;1386;50.862;6.494;2022-08-03T06:09:53;4.50;;;2.87;;
2756;SDS011;1386;50.862;6.494;2022-08-03T06:12:20;3.47;;;2.50;;
2756;SDS011;1386;50.862;6.494;2022-08-03T06:14:47;3.87;;;2.80;;
2756;SDS011;1386;50.862;6.494;2022-08-03T06:17:14;4.97;;;3.10;;
2756;SDS011;1386;50.862;6.494;2022-08-03T06:19:41;4.60;;;3.20;;
2756;SDS011;1386;50.862;6.494;2022-08-03T06:22:08;9.43;;;2.97;;
2756;SDS011;1386;50.862;6.494;2022-08-03T06:24:34;6.37;;;2.90;;
2756;SDS011;1386;50.862;6.494;2022-08-03T06:27:03;4.07;;;3.07;;
2756;SDS011;1386;50.862;6.494;2022-08-03T06:29:30;5.30;;;3.17;;
2756;SDS011;1386;50.862;6.494;2022-08-03T06:31:56;3.03;;;2.50;;
2756;SDS011;1386;50.862;6.494;2022-08-03T06:34:23;3.90;;;2.97;;
2756;SDS011;1386;50.862;6.494;2022-08-03T06:36:50;3.90;;;3.00;;
2756;SDS011;1386;50.862;6.494;2022-08-03T06:39:18;5.33;;;2.90;;
2756;SDS011;1386;50.862;6.494;2022-08-03T06:41:45;4.30;;;2.97;;
2756;SDS011;1386;50.862;6.494;2022-08-03T06:44:14;5.50;;;3.23;;
2756;SDS011;1386;50.862;6.494;2022-08-03T06:46:41;5.43;;;2.80;;
2756;SDS011;1386;50.862;6.494;2022-08-03T06:49:07;3.70;;;2.90;;
2756;SDS011;1386;50.862;6.494;2022-08-03T06:51:34;3.80;;;2.50;;
2756;SDS011;1386;50.862;6.494;2022-08-03T06:54:01;5.60;;;2.80;;
2756;SDS011;1386;50.862;6.494;2022-08-03T06:56:28;5.27;;;2.77;;
2756;SDS011;1386;50.862;6.494;2022-08-03T06:58:55;6.50;;;2.60;;
2756;SDS011;1386;50.862;6.494;2022-08-03T07:01:23;7.50;;;2.30;;
2756;SDS011;1386;50.862;6.494;2022-08-03T07:03:50;2.50;;;1.80;;
2756;SDS011;1386;50.862;6.494;2022-08-03T07:06:18;3.20;;;2.03;;
2756;SDS011;1386;50.862;6.494;2022-08-03T07:08:45;3.30;;;2.27;;
2756;SDS011;1386;50.862;6.494;2022-08-03T07:11:12;5.33;;;2.07;;
2756;SDS011;1386;50.862;6.494;2022-08-03T07:13:39;3.20;;;1.90;;
2756;SDS011;1386;50.862;6.494;2022-08-03T07:16:06;4.30;;;2.30;;
2756;SDS011;1386;50.862;6.494;2022-08-03T07:18:34;10.63;;;2.07;;
2756;SDS011;1386;50.862;6.494;2022-08-03T07:21:03;5.17;;;2.43;;
2756;SDS011;1386;50.862;6.494;2022-08-03T07:23:32;4.80;;;2.03;;
2756;SDS011;1386;50.862;6.494;2022-08-03T07:25:58;4.03;;;1.93;;
2756;SDS011;1386;50.862;6.494;2022-08-03T07:28:25;4.30;;;2.00;;
2756;SDS011;1386;50.862;6.494;2022-08-03T07:30:52;5.93;;;2.60;;
2756;SDS011;1386;50.862;6.494;2022-08-03T07:33:19;5.13;;;2.10;;
2756;SDS011;1386;50.862;6.494;2022-08-03T07:35:47;2.60;;;1.90;;
2756;SDS011;1386;50.862;6.494;2022-08-03T07:38:14;2.70;;;1.83;;
2756;SDS011;1386;50.862;6.494;2022-08-03T07:40:41;5.60;;;1.80;;
2756;SDS011;1386;50.862;6.494;2022-08-03T07:43:08;6.07;;;2.00;;
2756;SDS011;1386;50.862;6.494;2022-08-03T07:45:35;4.93;;;2.23;;
2756;SDS011;1386;50.862;6.494;2022-08-03T07:48:02;3.27;;;1.83;;
2756;SDS011;1386;50.862;6.494;2022-08-03T07:50:29;2.90;;;2.00;;
2756;SDS011;1386;50.862;6.494;2022-08-03T07:52:58;4.60;;;2.00;;
2756;SDS011;1386;50.862;6.494;2022-08-03T07:55:25;4.77;;;1.97;;
2756;SDS011;1386;50.862;6.494;2022-08-03T07:57:59;3.97;;;2.37;;
2756;SDS011;1386;50.862;6.494;2022-08-03T08:00:27;5.30;;;2.43;;
2756;SDS011;1386;50.862;6.494;2022-08-03T08:02:54;4.77;;;2.37;;
2756;SDS011;1386;50.862;6.494;2022-08-03T08:05:21;3.90;;;1.97;;
2756;SDS011;1386;50.862;6.494;2022-08-03T08:07:48;2.80;;;1.80;;
2756;SDS011;1386;50.862;6.494;2022-08-03T08:10:16;2.70;;;2.10;;
2756;SDS011;1386;50.862;6.494;2022-08-03T08:12:43;7.00;;;2.40;;
2756;SDS011;1386;50.862;6.494;2022-08-03T08:15:10;2.83;;;1.87;;
2756;SDS011;1386;50.862;6.494;2022-08-03T08:17:41;7.17;;;2.13;;
2756;SDS011;1386;50.862;6.494;2022-08-03T08:20:09;5.17;;;2.00;;
2756;SDS011;1386;50.862;6.494;2022-08-03T08:22:37;4.03;;;1.90;;
2756;SDS011;1386;50.862;6.494;2022-08-03T08:25:04;2.73;;;1.87;;
2756;SDS011;1386;50.862;6.494;2022-08-03T08:27:32;3.67;;;1.93;;
2756;SDS011;1386;50.862;6.494;2022-08-03T08:30:06;3.10;;;2.20;;
2756;SDS011;1386;50.862;6.494;2022-08-03T08:32:33;4.10;;;2.00;;
2756;SDS011;1386;50.862;6.494;2022-08-03T08:35:01;5.27;;;2.33;;
2756;SDS011;1386;50.862;6.494;2022-08-03T08:37:28;3.00;;;1.83;;
2756;SDS011;1386;50.862;6.494;2022-08-03T08:39:55;2.70;;;1.70;;
2756;SDS011;1386;50.862;6.494;2022-08-03T08:42:22;2.67;;;1.70;;
2756;SDS011;1386;50.862;6.494;2022-08-03T08:44:51;6.43;;;1.60;;
2756;SDS011;1386;50.862;6.494;2022-08-03T08:47:18;3.20;;;1.57;;
2756;SDS011;1386;50.862;6.494;2022-08-03T08:49:50;4.13;;;1.67;;
2756;SDS011;1386;50.862;6.494;2022-08-03T08:52:19;2.57;;;1.70;;
2756;SDS011;1386;50.862;6.494;2022-08-03T08:54:50;4.13;;;1.80;;
2756;SDS011;1386;50.862;6.494;2022-08-03T08:57:19;3.90;;;1.80;;
2756;SDS011;1386;50.862;6.494;2022-08-03T08:59:49;4.70;;;1.60;;
2756;SDS011;1386;50.862;6.494;2022-08-03T09:02:20;3.83;;;1.70;;
2756;SDS011;1386;50.862;6.494;2022-08-03T09:04:47;6.53;;;1.77;;
2756;SDS011;1386;50.862;6.494;2022-08-03T09:07:15;4.33;;;2.17;;
2756;SDS011;1386;50.862;6.494;2022-08-03T09:09:42;3.40;;;1.90;;
2756;SDS011;1386;50.862;6.494;2022-08-03T09:12:09;4.70;;;2.13;;
2756;SDS011;1386;50.862;6.494;2022-08-03T09:14:36;2.23;;;1.50;;
2756;SDS011;1386;50.862;6.494;2022-08-03T09:17:04;4.67;;;1.70;;
2756;SDS011;1386;50.862;6.494;2022-08-03T09:19:33;3.80;;;1.90;;
2756;SDS011;1386;50.862;6.494;2022-08-03T09:22:07;4.50;;;1.77;;
2756;SDS011;1386;50.862;6.494;2022-08-03T09:24:52;4.10;;;1.77;;
2756;SDS011;1386;50.862;6.494;2022-08-03T09:27:21;3.03;;;1.70;;
2756;SDS011;1386;50.862;6.494;2022-08-03T09:29:49;3.30;;;1.50;;
2756;SDS011;1386;50.862;6.494;2022-08-03T09:32:19;3.43;;;1.90;;
2756;SDS011;1386;50.862;6.494;2022-08-03T09:34:47;3.60;;;1.63;;
2756;SDS011;1386;50.862;6.494;2022-08-03T09:37:19;4.37;;;1.57;;
2756;SDS011;1386;50.862;6.494;2022-08-03T11:52:45;2.53;;;1.50;;
2756;SDS011;1386;50.862;6.494;2022-08-03T11:55:13;3.10;;;1.80;;
2756;SDS011;1386;50.862;6.494;2022-08-03T11:57:42;5.77;;;1.30;;
2756;SDS011;1386;50.862;6.494;2022-08-03T12:00:27;4.03;;;1.37;;
2756;SDS011;1386;50.862;6.494;2022-08-03T12:02:55;3.80;;;1.70;;
2756;SDS011;1386;50.862;6.494;2022-08-03T12:05:33;2.63;;;1.60;;
2756;SDS011;1386;50.862;6.494;2022-08-03T12:08:06;5.87;;;1.80;;
2756;SDS011;1386;50.862;6.494;2022-08-03T12:10:33;3.00;;;1.50;;
2756;SDS011;1386;50.862;6.494;2022-08-03T12:13:02;2.63;;;1.57;;
2756;SDS011;1386;50.862;6.494;2022-08-03T12:15:32;2.20;;;1.43;;
2756;SDS011;1386;50.862;6.494;2022-08-03T12:18:00;3.47;;;1.60;;
2756;SDS011;1386;50.862;6.494;2022-08-03T12:20:29;2.60;;;1.20;;
2756;SDS011;1386;50.862;6.494;2022-08-03T12:23:01;2.27;;;1.40;;
2756;SDS011;1386;50.862;6.494;2022-08-03T12:25:31;3.00;;;1.50;;
2756;SDS011;1386;50.862;6.494;2022-08-03T12:28:09;4.63;;;1.30;;
2756;SDS011;1386;50.862;6.494;2022-08-03T12:30:40;3.10;;;1.77;;
2756;SDS011;1386;50.862;6.494;2022-08-03T12:33:18;1.80;;;1.20;;
2756;SDS011;1386;50.862;6.494;2022-08-03T12:35:48;6.67;;;1.77;;
2756;SDS011;1386;50.862;6.494;2022-08-03T12:38:20;2.50;;;1.57;;
2756;SDS011;1386;50.862;6.494;2022-08-03T12:40:56;3.43;;;1.57;;
2756;SDS011;1386;50.862;6.494;2022-08-03T12:43:24;2.97;;;1.77;;
2756;SDS011;1386;50.862;6.494;2022-08-03T12:46:05;3.40;;;1.70;;
2756;SDS011;1386;50.862;6.494;2022-08-03T12:48:33;1.97;;;1.40;;
2756;SDS011;1386;50.862;6.494;2022-08-03T12:51:06;3.63;;;1.43;;
2756;SDS011;1386;50.862;6.494;2022-08-03T12:53:34;4.03;;;1.67;;
2756;SDS011;1386;50.862;6.494;2022-08-03T12:56:03;4.00;;;1.30;;
2756;SDS011;1386;50.862;6.494;2022-08-03T12:58:32;6.40;;;1.30;;
2756;SDS011;1386;50.862;6.494;2022-08-03T13:00:59;3.53;;;1.50;;
2756;SDS011;1386;50.862;6.494;2022-08-03T13:03:27;2.83;;;1.77;;
2756;SDS011;1386;50.862;6.494;2022-08-03T13:05:53;3.60;;;1.30;;
2756;SDS011;1386;50.862;6.494;2022-08-03T13:08:22;3.23;;;1.80;;
2756;SDS011;1386;50.862;6.494;2022-08-03T13:10:50;3.70;;;1.50;;
2756;SDS011;1386;50.862;6.494;2022-08-03T13:13:18;2.20;;;1.70;;
2756;SDS011;1386;50.862;6.494;2022-08-03T13:16:04;4.33;;;1.50;;
2756;SDS011;1386;50.862;6.494;2022-08-03T13:18:30;2.77;;;1.37;;
2756;SDS011;1386;50.862;6.494;2022-08-03T13:20:57;3.83;;;1.60;;
2756;SDS011;1386;50.862;6.494;2022-08-03T13:23:24;4.30;;;1.47;;
2756;SDS011;1386;50.862;6.494;2022-08-03T13:26:11;4.50;;;1.50;;
2756;SDS011;1386;50.862;6.494;2022-08-03T21:29:52;8.30;;;2.43;;
